createdAt,value
2018-03-04T00:02:05.352Z,79.23
2018-03-04T00:04:32.747Z,78.27
2018-03-04T00:07:00.140Z,82.50
2018-03-04T00:09:27.547Z,81.30
2018-03-04T00:11:54.941Z,78.07
2018-03-04T00:14:23.031Z,81.00
2018-03-04T00:16:50.742Z,82.53
2018-03-04T00:19:18.145Z,81.47
2018-03-04T00:21:45.569Z,78.07
2018-03-04T00:24:12.953Z,79.27
2018-03-04T00:26:40.345Z,80.27
2018-03-04T00:29:07.783Z,81.70
2018-03-04T00:31:35.213Z,85.20
2018-03-04T00:34:02.907Z,85.70
2018-03-04T00:36:30.341Z,80.77
2018-03-04T00:38:57.728Z,88.53
2018-03-04T00:41:25.116Z,87.93
2018-03-04T00:43:53.352Z,97.50
2018-03-04T00:46:20.744Z,88.90
2018-03-04T00:48:48.170Z,97.10
2018-03-04T00:51:15.576Z,92.53
2018-03-04T00:53:42.992Z,92.07
2018-03-04T00:56:10.388Z,88.80
2018-03-04T00:58:37.802Z,95.85
2018-03-04T01:01:05.205Z,102.27
2018-03-04T01:03:32.770Z,87.30
2018-03-04T01:06:00.204Z,97.67
2018-03-04T01:08:27.594Z,91.60
2018-03-04T01:10:55.139Z,86.90
2018-03-04T01:13:23.380Z,91.63
2018-03-04T01:15:51.693Z,87.60
2018-03-04T01:18:19.280Z,103.53
2018-03-04T01:20:46.663Z,92.77
2018-03-04T01:23:14.062Z,96.43
2018-03-04T01:25:41.520Z,94.50
2018-03-04T01:28:09.174Z,106.20
2018-03-04T01:30:36.580Z,96.40
2018-03-04T01:33:04.898Z,99.63
2018-03-04T01:35:32.330Z,92.15
2018-03-04T01:37:59.715Z,93.33
2018-03-04T01:40:27.108Z,99.07
2018-03-04T01:42:56.556Z,102.30
2018-03-04T01:45:23.947Z,96.93
2018-03-04T01:47:51.351Z,95.60
2018-03-04T01:50:18.806Z,96.37
2018-03-04T01:52:46.215Z,106.37
2018-03-04T01:55:13.599Z,115.77
2018-03-04T01:57:41.029Z,109.20
2018-03-04T02:00:08.457Z,106.77
2018-03-04T02:02:35.918Z,112.20
2018-03-04T02:05:03.310Z,111.57
2018-03-04T02:07:30.736Z,109.40
2018-03-04T02:09:58.150Z,105.67
2018-03-04T02:12:25.550Z,110.13
2018-03-04T02:14:53.622Z,111.62
2018-03-04T02:17:21.038Z,103.40
2018-03-04T02:19:48.439Z,110.53
2018-03-04T02:22:15.935Z,109.17
2018-03-04T02:24:43.312Z,103.30
2018-03-04T02:27:10.950Z,105.63
2018-03-04T02:29:38.362Z,114.47
2018-03-04T02:32:06.019Z,99.07
2018-03-04T02:34:33.532Z,116.53
2018-03-04T02:37:01.000Z,111.43
2018-03-04T02:39:28.401Z,115.70
2018-03-04T02:41:55.822Z,101.80
2018-03-04T02:44:23.726Z,114.22
2018-03-04T02:46:51.117Z,103.43
2018-03-04T02:49:18.528Z,113.43
2018-03-04T02:51:46.018Z,111.90
2018-03-04T02:54:13.494Z,105.63
2018-03-04T02:56:40.968Z,110.90
2018-03-04T02:59:08.417Z,106.90
2018-03-04T03:01:35.797Z,104.13
2018-03-04T03:04:03.181Z,103.27
2018-03-04T03:06:30.572Z,108.53
2018-03-04T03:08:58.012Z,105.05
2018-03-04T03:11:25.416Z,106.90
2018-03-04T03:13:52.796Z,108.12
2018-03-04T03:16:20.287Z,100.77
2018-03-04T03:18:47.698Z,102.77
2018-03-04T03:21:15.092Z,107.07
2018-03-04T03:23:42.527Z,112.03
2018-03-04T03:26:09.929Z,106.10
2018-03-04T03:28:37.389Z,108.47
2018-03-04T03:31:04.811Z,106.13
2018-03-04T03:33:32.193Z,106.75
2018-03-04T03:35:59.624Z,112.45
2018-03-04T03:38:27.037Z,101.17
2018-03-04T03:40:54.450Z,102.80
2018-03-04T03:43:21.856Z,104.47
2018-03-04T03:45:49.233Z,109.23
2018-03-04T03:48:16.628Z,101.50
2018-03-04T03:50:44.021Z,102.50
2018-03-04T03:53:11.492Z,111.35
2018-03-04T03:55:38.871Z,104.60
2018-03-04T03:58:06.253Z,103.17
2018-03-04T04:00:33.684Z,105.33
2018-03-04T04:03:01.107Z,106.32
2018-03-04T04:05:28.498Z,102.00
2018-03-04T04:07:55.918Z,99.67
2018-03-04T04:10:24.246Z,99.47
2018-03-04T04:12:51.641Z,103.00
2018-03-04T04:15:19.102Z,105.47
2018-03-04T04:17:46.501Z,102.90
2018-03-04T04:20:13.883Z,101.83
2018-03-04T04:22:41.270Z,94.22
2018-03-04T04:25:08.720Z,101.27
2018-03-04T04:27:36.120Z,97.88
2018-03-04T04:30:03.603Z,103.75
2018-03-04T04:32:30.985Z,92.23
2018-03-04T04:34:58.395Z,93.67
2018-03-04T04:37:25.843Z,95.03
2018-03-04T04:39:54.416Z,95.48
2018-03-04T04:42:21.795Z,95.00
2018-03-04T04:44:49.196Z,89.10
2018-03-04T04:47:16.595Z,95.23
2018-03-04T04:49:43.979Z,99.30
2018-03-04T04:52:11.427Z,93.20
2018-03-04T04:54:38.843Z,87.40
2018-03-04T04:57:06.418Z,92.05
2018-03-04T04:59:33.977Z,88.37
2018-03-04T05:02:01.377Z,88.82
2018-03-04T05:04:28.788Z,82.45
2018-03-04T05:06:56.216Z,90.60
2018-03-04T05:09:24.663Z,90.60
2018-03-04T05:11:52.253Z,87.17
2018-03-04T05:14:19.656Z,90.33
2018-03-04T05:16:47.064Z,82.27
2018-03-04T05:19:14.630Z,83.17
2018-03-04T05:21:42.217Z,82.77
2018-03-04T05:24:09.590Z,85.23
2018-03-04T05:26:36.993Z,80.33
2018-03-04T05:29:04.389Z,91.90
2018-03-04T05:31:31.954Z,86.10
2018-03-04T05:33:59.369Z,85.07
2018-03-04T05:36:26.756Z,89.10
2018-03-04T05:38:54.561Z,82.30
2018-03-04T05:41:21.956Z,89.90
2018-03-04T05:43:49.567Z,85.72
2018-03-04T05:46:17.005Z,82.20
2018-03-04T05:48:44.414Z,74.75
2018-03-04T05:51:11.793Z,86.87
2018-03-04T05:53:39.281Z,82.27
2018-03-04T05:56:06.835Z,84.90
2018-03-04T05:58:34.250Z,80.00
2018-03-04T06:01:01.773Z,85.40
2018-03-04T06:03:29.164Z,82.93
2018-03-04T06:05:56.592Z,89.85
2018-03-04T06:08:24.849Z,84.30
2018-03-04T06:10:52.270Z,84.40
2018-03-04T06:13:19.665Z,78.60
2018-03-04T06:15:47.928Z,82.10
2018-03-04T06:18:15.338Z,81.30
2018-03-04T06:20:42.822Z,81.95
2018-03-04T06:23:10.221Z,85.57
2018-03-04T06:25:37.631Z,85.97
2018-03-04T06:28:05.036Z,89.87
2018-03-04T06:30:32.425Z,80.50
2018-03-04T06:32:59.830Z,85.05
2018-03-04T06:35:27.235Z,79.63
2018-03-04T06:37:55.060Z,79.32
2018-03-04T06:40:22.458Z,83.17
2018-03-04T06:42:49.916Z,83.73
2018-03-04T06:45:17.373Z,79.20
2018-03-04T06:47:44.779Z,87.43
2018-03-04T06:50:12.251Z,85.35
2018-03-04T06:52:39.982Z,77.30
2018-03-04T06:55:07.449Z,78.03
2018-03-04T06:57:34.951Z,86.03
2018-03-04T07:00:02.335Z,77.20
2018-03-04T07:02:29.752Z,83.85
2018-03-04T07:04:57.135Z,78.50
2018-03-04T07:07:24.863Z,79.43
2018-03-04T07:09:52.248Z,79.70
2018-03-04T07:12:19.646Z,80.17
2018-03-04T07:14:47.062Z,84.90
2018-03-04T07:17:14.450Z,77.27
2018-03-04T07:19:42.579Z,79.60
2018-03-04T07:22:09.969Z,78.60
2018-03-04T07:24:37.370Z,73.33
2018-03-04T07:27:04.765Z,79.75
2018-03-04T07:29:32.211Z,79.50
2018-03-04T07:31:59.620Z,83.13
2018-03-04T07:34:27.176Z,80.70
2018-03-04T07:36:55.155Z,73.68
2018-03-04T07:39:22.606Z,79.17
2018-03-04T07:41:49.999Z,72.30
2018-03-04T07:44:17.371Z,74.27
2018-03-04T07:46:45.769Z,79.07
2018-03-04T07:49:13.153Z,77.47
2018-03-04T07:51:40.562Z,75.50
2018-03-04T07:54:07.935Z,74.47
2018-03-04T07:56:35.431Z,79.50
2018-03-04T07:59:02.819Z,79.30
2018-03-04T08:01:30.228Z,76.27
2018-03-04T08:03:58.038Z,78.93
2018-03-04T08:06:25.432Z,75.07
2018-03-04T08:08:52.954Z,72.67
2018-03-04T08:11:20.388Z,78.60
2018-03-04T08:13:48.180Z,70.50
2018-03-04T08:16:15.562Z,73.17
2018-03-04T08:18:42.960Z,71.73
2018-03-04T08:21:10.394Z,73.68
2018-03-04T08:23:37.806Z,68.70
2018-03-04T08:26:16.821Z,72.30
2018-03-04T08:28:44.271Z,69.13
2018-03-04T08:31:11.647Z,68.30
2018-03-04T08:33:39.092Z,69.93
2018-03-04T08:36:06.629Z,64.23
2018-03-04T08:38:34.429Z,63.27
2018-03-04T08:41:01.903Z,69.70
2018-03-04T08:43:29.389Z,71.75
2018-03-04T08:45:56.830Z,65.37
2018-03-04T08:48:24.250Z,68.80
2018-03-04T08:50:51.653Z,69.27
2018-03-04T08:53:19.058Z,67.13
2018-03-04T08:55:46.437Z,64.87
2018-03-04T08:58:14.051Z,71.43
2018-03-04T09:00:41.450Z,68.22
2018-03-04T09:03:08.828Z,62.90
2018-03-04T09:05:36.262Z,66.47
2018-03-04T09:08:03.707Z,68.03
2018-03-04T09:10:31.117Z,62.30
2018-03-04T09:12:58.492Z,65.77
2018-03-04T09:15:25.937Z,69.17
2018-03-04T09:17:54.310Z,68.20
2018-03-04T09:20:21.715Z,63.77
2018-03-04T09:22:49.128Z,66.60
2018-03-04T09:25:16.709Z,66.20
2018-03-04T09:27:44.152Z,59.80
2018-03-04T09:30:11.572Z,64.37
2018-03-04T09:32:38.986Z,63.22
2018-03-04T09:35:06.673Z,62.17
2018-03-04T09:37:34.055Z,67.53
2018-03-04T09:40:01.585Z,59.17
2018-03-04T09:42:28.963Z,69.43
2018-03-04T09:44:56.409Z,72.10
2018-03-04T09:47:23.809Z,60.80
2018-03-04T09:49:51.285Z,50.47
2018-03-04T09:52:18.736Z,55.57
2018-03-04T09:54:46.263Z,54.57
2018-03-04T09:57:13.658Z,55.20
2018-03-04T09:59:41.062Z,51.90
2018-03-04T10:02:08.489Z,52.10
2018-03-04T10:04:35.885Z,50.90
2018-03-04T10:07:03.310Z,47.13
2018-03-04T10:09:30.699Z,45.40
2018-03-04T10:11:58.092Z,47.00
2018-03-04T10:14:25.789Z,41.22
2018-03-04T10:16:53.181Z,43.77
2018-03-04T10:19:20.864Z,39.28
2018-03-04T10:21:48.278Z,44.80
2018-03-04T10:24:15.674Z,40.07
2018-03-04T10:26:43.123Z,45.77
2018-03-04T10:29:10.515Z,41.70
2018-03-04T10:31:37.933Z,39.17
2018-03-04T10:34:06.043Z,36.13
2018-03-04T10:36:33.428Z,38.47
2018-03-04T10:39:01.204Z,37.67
2018-03-04T10:41:28.610Z,35.07
2018-03-04T10:43:56.120Z,35.33
2018-03-04T10:46:23.657Z,34.77
2018-03-04T10:48:51.051Z,33.17
2018-03-04T10:51:18.449Z,35.23
2018-03-04T10:53:45.837Z,33.53
2018-03-04T10:56:13.349Z,31.60
2018-03-04T10:58:40.779Z,31.12
2018-03-04T11:01:10.034Z,34.22
2018-03-04T11:03:37.442Z,32.70
2018-03-04T11:06:05.006Z,100.95
2018-03-04T11:08:32.970Z,34.50
2018-03-04T11:11:00.390Z,32.17
2018-03-04T11:13:27.776Z,29.50
2018-03-04T11:15:56.048Z,33.10
2018-03-04T11:18:23.553Z,32.33
2018-03-04T11:20:50.981Z,31.93
2018-03-04T11:23:18.677Z,34.23
2018-03-04T11:25:46.101Z,27.77
2018-03-04T11:28:13.637Z,31.52
2018-03-04T11:30:41.014Z,29.23
2018-03-04T11:33:08.444Z,29.12
2018-03-04T11:35:36.244Z,28.00
2018-03-04T11:38:03.666Z,27.63
2018-03-04T11:40:31.073Z,27.30
2018-03-04T11:42:58.485Z,27.10
2018-03-04T11:45:26.208Z,28.45
2018-03-04T11:47:53.693Z,27.47
2018-03-04T11:50:21.105Z,28.98
2018-03-04T11:52:48.542Z,29.00
2018-03-04T11:55:15.964Z,27.57
2018-03-04T11:57:44.393Z,26.93
2018-03-04T12:00:11.934Z,26.52
2018-03-04T12:02:41.002Z,27.20
2018-03-04T12:05:08.561Z,29.42
2018-03-04T12:07:36.149Z,26.43
2018-03-04T12:10:03.762Z,25.87
2018-03-04T12:12:31.169Z,26.20
2018-03-04T12:14:58.619Z,24.50
2018-03-04T12:17:27.211Z,26.12
2018-03-04T12:19:54.639Z,25.07
2018-03-04T12:22:22.030Z,24.40
2018-03-04T12:24:49.659Z,25.17
2018-03-04T12:27:17.252Z,23.70
2018-03-04T12:29:44.876Z,23.57
2018-03-04T12:32:12.330Z,23.15
2018-03-04T12:34:39.739Z,23.52
2018-03-04T12:37:07.129Z,22.33
2018-03-04T12:39:34.619Z,22.10
2018-03-04T12:42:02.011Z,24.40
2018-03-04T12:44:29.510Z,29.90
2018-03-04T12:46:57.005Z,25.60
2018-03-04T12:49:25.080Z,23.33
2018-03-04T12:51:52.480Z,24.20
2018-03-04T12:54:19.903Z,24.90
2018-03-04T12:56:47.283Z,24.63
2018-03-04T12:59:14.686Z,25.20
2018-03-04T13:01:42.085Z,24.30
2018-03-04T13:04:09.487Z,24.80
2018-03-04T13:06:37.182Z,27.33
2018-03-04T13:09:08.879Z,31.40
2018-03-04T13:11:36.287Z,30.80
2018-03-04T13:14:03.740Z,31.58
2018-03-04T13:16:31.140Z,30.70
2018-03-04T13:18:58.679Z,34.63
2018-03-04T13:21:26.552Z,36.47
2018-03-04T13:23:53.960Z,34.90
2018-03-04T13:26:21.346Z,35.50
2018-03-04T13:28:48.897Z,35.40
2018-03-04T13:31:16.264Z,34.87
2018-03-04T13:33:43.707Z,38.03
2018-03-04T13:36:11.133Z,39.07
2018-03-04T13:38:38.612Z,39.17
2018-03-04T13:41:07.109Z,39.77
2018-03-04T13:43:34.614Z,40.07
2018-03-04T13:46:02.014Z,41.33
2018-03-04T13:48:29.433Z,41.00
2018-03-04T13:50:56.832Z,41.40
2018-03-04T13:53:24.232Z,43.70
2018-03-04T13:55:51.633Z,42.20
2018-03-04T13:58:19.037Z,41.90
2018-03-04T14:00:46.534Z,43.13
2018-03-04T14:03:13.990Z,42.80
2018-03-04T14:05:41.425Z,43.17
2018-03-04T14:08:12.056Z,43.27
2018-03-04T14:10:39.583Z,43.83
2018-03-04T14:13:07.014Z,43.40
2018-03-04T14:15:34.661Z,42.90
2018-03-04T14:18:02.163Z,43.96
2018-03-04T14:20:29.586Z,42.50
2018-03-04T14:22:57.342Z,43.93
2018-03-04T14:25:25.052Z,43.45
2018-03-04T14:27:52.500Z,42.87
2018-03-04T14:30:19.930Z,43.27
2018-03-04T14:32:47.904Z,42.17
2018-03-04T14:35:15.338Z,42.07
2018-03-04T14:37:42.741Z,42.90
2018-03-04T14:40:17.037Z,42.40
2018-03-04T14:42:51.843Z,43.27
2018-03-04T14:45:19.504Z,43.10
2018-03-04T14:47:46.969Z,40.10
2018-03-04T14:50:14.360Z,39.63
2018-03-04T14:52:48.129Z,36.85
2018-03-04T14:55:15.546Z,39.27
2018-03-04T14:57:42.919Z,38.70
2018-03-04T15:00:10.324Z,37.03
2018-03-04T15:02:37.773Z,36.20
2018-03-04T15:05:05.216Z,38.10
2018-03-04T15:07:32.602Z,35.97
2018-03-04T15:10:00.117Z,36.97
2018-03-04T15:12:28.297Z,34.40
2018-03-04T15:14:55.738Z,37.77
2018-03-04T15:17:23.143Z,37.40
2018-03-04T15:19:50.549Z,36.80
2018-03-04T15:22:17.965Z,35.07
2018-03-04T15:24:45.421Z,37.80
2018-03-04T15:27:12.881Z,35.07
2018-03-04T15:29:40.522Z,35.03
2018-03-04T15:32:07.980Z,34.97
2018-03-04T15:34:35.614Z,35.17
2018-03-04T15:37:04.509Z,34.00
2018-03-04T15:39:31.952Z,32.90
2018-03-04T15:41:59.332Z,31.40
2018-03-04T15:44:28.597Z,32.53
2018-03-04T15:46:56.103Z,34.10
2018-03-04T15:49:23.538Z,30.53
2018-03-04T15:51:50.983Z,29.87
2018-03-04T15:54:18.381Z,28.30
2018-03-04T15:56:45.816Z,27.17
2018-03-04T15:59:13.197Z,31.62
2018-03-04T16:01:40.588Z,26.23
2018-03-04T16:04:07.993Z,29.00
2018-03-04T16:06:35.604Z,26.17
2018-03-04T16:09:03.005Z,23.58
2018-03-04T16:11:30.400Z,23.40
2018-03-04T16:13:57.812Z,26.40
2018-03-04T16:16:26.047Z,23.50
2018-03-04T16:18:53.656Z,25.00
2018-03-04T16:21:32.914Z,23.67
2018-03-04T16:24:09.549Z,24.95
2018-03-04T16:26:38.762Z,21.77
2018-03-04T16:29:08.267Z,22.07
2018-03-04T16:31:35.964Z,22.57
2018-03-04T16:34:03.357Z,25.33
2018-03-04T16:36:30.765Z,21.17
2018-03-04T16:38:58.156Z,20.47
2018-03-04T16:41:25.679Z,18.30
2018-03-04T16:43:53.342Z,21.30
2018-03-04T16:46:20.837Z,16.70
2018-03-04T16:48:48.255Z,19.43
2018-03-04T16:51:15.653Z,18.75
2018-03-04T16:53:43.229Z,17.25
2018-03-04T16:56:10.777Z,16.60
2018-03-04T16:58:38.162Z,18.20
2018-03-04T17:01:05.597Z,16.02
2018-03-04T17:03:32.997Z,15.77
2018-03-04T17:06:00.400Z,15.43
2018-03-04T17:08:28.008Z,17.30
2018-03-04T17:10:56.324Z,15.93
2018-03-04T17:13:23.714Z,15.93
2018-03-04T17:15:51.191Z,15.30
2018-03-04T17:18:18.689Z,15.05
2018-03-04T17:20:46.098Z,14.63
2018-03-04T17:23:19.134Z,12.50
2018-03-04T17:25:46.913Z,14.93
2018-03-04T17:28:15.933Z,14.17
2018-03-04T17:30:50.426Z,14.57
2018-03-04T17:33:19.145Z,14.03
2018-03-04T17:35:46.643Z,14.17
2018-03-04T17:38:14.252Z,17.20
2018-03-04T17:40:41.749Z,14.87
2018-03-04T17:43:09.144Z,14.10
2018-03-04T17:45:36.593Z,15.18
2018-03-04T17:48:04.179Z,16.98
2018-03-04T17:50:31.596Z,14.77
2018-03-04T17:52:59.259Z,14.10
2018-03-04T17:55:27.748Z,19.45
2018-03-04T17:57:55.159Z,17.70
2018-03-04T18:00:22.712Z,15.60
2018-03-04T18:02:50.147Z,16.97
2018-03-04T18:05:17.572Z,15.67
2018-03-04T18:07:44.983Z,14.57
2018-03-04T18:10:12.388Z,16.07
2018-03-04T18:12:40.794Z,15.02
2018-03-04T18:15:08.195Z,16.50
2018-03-04T18:17:35.593Z,14.63
2018-03-04T18:20:03.365Z,14.38
2018-03-04T18:22:30.743Z,12.33
2018-03-04T18:24:58.209Z,14.53
2018-03-04T18:27:26.040Z,14.13
2018-03-04T18:29:53.936Z,16.70
2018-03-04T18:32:21.332Z,14.60
2018-03-04T18:34:48.873Z,16.37
2018-03-04T18:37:16.304Z,22.03
2018-03-04T18:39:43.685Z,16.87
2018-03-04T18:42:11.159Z,16.27
2018-03-04T18:44:39.872Z,16.10
2018-03-04T18:47:07.278Z,13.88
2018-03-04T18:49:34.687Z,13.68
2018-03-04T18:52:02.098Z,15.65
2018-03-04T18:54:29.623Z,15.20
2018-03-04T18:56:58.011Z,15.23
2018-03-04T18:59:25.404Z,14.67
2018-03-04T19:01:52.837Z,14.40
2018-03-04T19:04:20.285Z,16.83
2018-03-04T19:06:47.679Z,15.70
2018-03-04T19:09:15.263Z,14.00
2018-03-04T19:11:42.653Z,12.98
2018-03-04T19:14:10.056Z,14.17
2018-03-04T19:16:37.448Z,17.13
2018-03-04T19:19:04.848Z,14.70
2018-03-04T19:21:39.470Z,14.47
2018-03-04T19:24:06.914Z,16.15
2018-03-04T19:26:35.332Z,13.23
2018-03-04T19:29:14.431Z,11.97
2018-03-04T19:31:41.889Z,13.67
2018-03-04T19:34:09.359Z,15.07
2018-03-04T19:36:36.815Z,14.30
2018-03-04T19:39:04.282Z,18.30
2018-03-04T19:41:31.715Z,14.07
2018-03-04T19:43:59.103Z,16.63
2018-03-04T19:46:26.590Z,17.40
2018-03-04T19:48:54.370Z,15.63
2018-03-04T19:51:21.758Z,17.23
2018-03-04T19:53:49.193Z,16.57
2018-03-04T19:56:16.572Z,16.10
2018-03-04T19:58:44.030Z,15.23
2018-03-04T20:01:11.572Z,16.17
2018-03-04T20:03:38.997Z,16.70
2018-03-04T20:06:06.483Z,17.73
2018-03-04T20:08:33.938Z,17.23
2018-03-04T20:11:01.437Z,20.03
2018-03-04T20:13:28.909Z,19.83
2018-03-04T20:15:56.968Z,19.00
2018-03-04T20:18:24.383Z,20.37
2018-03-04T20:20:51.884Z,16.77
2018-03-04T20:23:19.287Z,19.07
2018-03-04T20:25:46.756Z,17.33
2018-03-04T20:28:14.179Z,21.60
2018-03-04T20:30:44.470Z,19.17
2018-03-04T20:33:12.014Z,17.40
2018-03-04T20:35:39.519Z,21.75
2018-03-04T20:38:06.908Z,17.73
2018-03-04T20:40:34.296Z,19.73
2018-03-04T20:43:02.120Z,22.47
2018-03-04T20:45:29.504Z,23.20
2018-03-04T20:47:56.913Z,20.70
2018-03-04T20:50:24.450Z,22.33
2018-03-04T20:52:51.857Z,23.93
2018-03-04T20:55:19.312Z,19.67
2018-03-04T20:57:47.000Z,18.63
2018-03-04T21:00:14.461Z,21.95
2018-03-04T21:02:41.876Z,21.90
2018-03-04T21:05:09.283Z,18.20
2018-03-04T21:07:36.707Z,19.13
2018-03-04T21:10:04.152Z,17.97
2018-03-04T21:12:31.709Z,17.10
2018-03-04T21:14:59.172Z,16.43
2018-03-04T21:17:26.623Z,15.73
2018-03-04T21:19:54.065Z,17.53
2018-03-04T21:22:21.469Z,15.40
2018-03-04T21:24:48.891Z,20.87
2018-03-04T21:27:16.289Z,16.40
2018-03-04T21:29:43.808Z,16.33
2018-03-04T21:32:13.330Z,17.30
2018-03-04T21:34:40.744Z,17.90
2018-03-04T21:37:08.293Z,19.70
2018-03-04T21:39:35.858Z,18.05
2018-03-04T21:42:03.236Z,21.73
2018-03-04T21:44:30.636Z,22.00
2018-03-04T21:46:58.776Z,21.60
2018-03-04T21:49:26.170Z,24.10
2018-03-04T21:51:53.636Z,24.00
2018-03-04T21:54:21.015Z,23.17
2018-03-04T21:56:49.336Z,26.93
2018-03-04T21:59:16.720Z,31.65
2018-03-04T22:01:44.157Z,26.40
2018-03-04T22:04:11.543Z,25.00
2018-03-04T22:06:39.522Z,29.93
2018-03-04T22:09:06.963Z,26.27
2018-03-04T22:11:34.385Z,26.92
2018-03-04T22:14:01.904Z,29.30
2018-03-04T22:16:29.294Z,28.90
2018-03-04T22:18:56.898Z,26.03
2018-03-04T22:21:24.276Z,30.23
2018-03-04T22:23:51.668Z,24.00
2018-03-04T22:26:19.070Z,26.80
2018-03-04T22:28:46.474Z,27.83
2018-03-04T22:31:13.933Z,25.47
2018-03-04T22:33:41.345Z,30.37
2018-03-04T22:36:08.730Z,28.60
2018-03-04T22:38:36.120Z,27.57
2018-03-04T22:41:03.726Z,25.73
2018-03-04T22:43:31.173Z,24.90
2018-03-04T22:46:00.384Z,25.54
2018-03-04T22:48:27.902Z,27.03
2018-03-04T22:50:56.538Z,26.97
2018-03-04T22:53:23.980Z,25.00
2018-03-04T22:55:51.383Z,23.87
2018-03-04T22:58:18.772Z,23.20
2018-03-04T23:00:46.193Z,25.33
2018-03-04T23:03:13.607Z,24.42
2018-03-04T23:05:41.090Z,28.70
2018-03-04T23:08:08.498Z,26.08
2018-03-04T23:10:35.906Z,24.50
2018-03-04T23:13:03.838Z,26.60
2018-03-04T23:15:32.049Z,27.63
2018-03-04T23:17:59.522Z,26.90
2018-03-04T23:20:29.495Z,29.43
2018-03-04T23:22:57.152Z,30.67
2018-03-04T23:25:24.730Z,30.03
2018-03-04T23:27:53.353Z,29.50
2018-03-04T23:30:21.196Z,25.65
2018-03-04T23:32:48.680Z,27.50
2018-03-04T23:35:18.215Z,31.60
2018-03-04T23:37:45.586Z,25.13
2018-03-04T23:40:12.980Z,30.35
2018-03-04T23:42:40.387Z,28.23
2018-03-04T23:45:07.965Z,31.37
2018-03-04T23:47:35.336Z,28.13
2018-03-04T23:50:02.740Z,31.67
2018-03-04T23:52:30.145Z,30.90
2018-03-04T23:54:57.534Z,31.97
2018-03-04T23:57:24.957Z,30.03
2018-03-04T23:59:52.430Z,31.37
